Time;durP1;ratioP1;P1;durP2;ratioP2;P2;SDS_P1;SDS_P2;PMS_P1;PMS_P2;Temp;Humidity;BMP_temperature;BMP_pressure;BME280_temperature;BME280_humidity;BME280_pressure;Samples;Min_cycle;Max_cycle;Signal;HPM_P1;HPM_P2
2023/02/12 00:00:20;;;;;;;66.22;48.28;;;10.20;99.90;;;;;;2091630;28;20103;-73
2023/02/12 00:01:22;;;;;;;62.45;46.78;;;10.20;99.90;;;;;;2090457;28;20041;-72
2023/02/12 00:02:23;;;;;;;65.75;47.13;;;10.20;99.90;;;;;;2090462;28;20032;-73
2023/02/12 00:03:24;;;;;;;63.85;48.50;;;10.20;99.90;;;;;;2090606;28;20542;-72
2023/02/12 00:04:24;;;;;;;64.45;45.30;;;10.20;99.90;;;;;;2091778;28;20114;-72
2023/02/12 00:05:25;;;;;;;60.63;46.25;;;10.20;99.90;;;;;;2090644;28;20653;-72
2023/02/12 00:06:25;;;;;;;67.05;47.35;;;10.20;99.90;;;;;;2089681;28;20036;-72
2023/02/12 00:07:30;;;;;;;65.32;46.42;;;10.20;99.90;;;;;;2091477;28;20078;-72
2023/02/12 00:08:30;;;;;;;64.00;48.30;;;10.20;99.90;;;;;;2090298;28;20044;-72
2023/02/12 00:09:31;;;;;;;62.95;45.92;;;10.20;99.90;;;;;;2089739;28;20025;-73
2023/02/12 00:10:31;;;;;;;63.70;46.75;;;10.20;99.90;;;;;;2092183;28;20031;-72
2023/02/12 00:11:32;;;;;;;50.47;39.47;;;10.20;99.90;;;;;;2091800;28;20023;-72
2023/02/12 00:12:32;;;;;;;63.80;45.80;;;10.20;99.90;;;;;;2090150;28;20024;-73
2023/02/12 00:13:33;;;;;;;59.60;45.72;;;10.20;99.90;;;;;;2090705;28;20076;-73
2023/02/12 00:14:35;;;;;;;60.72;45.60;;;10.20;99.90;;;;;;2089972;28;20036;-72
2023/02/12 00:15:40;;;;;;;61.28;45.03;;;10.20;99.90;;;;;;2090696;28;20112;-72
2023/02/12 00:16:41;;;;;;;65.55;47.63;;;10.20;99.90;;;;;;2089568;28;20036;-72
2023/02/12 00:17:41;;;;;;;67.63;47.03;;;10.20;99.90;;;;;;2090062;28;20052;-73
2023/02/12 00:18:43;;;;;;;63.47;46.50;;;10.20;99.90;;;;;;2092918;28;20032;-72
2023/02/12 00:19:43;;;;;;;63.35;45.85;;;10.20;99.90;;;;;;2088780;28;20067;-73
2023/02/12 00:20:44;;;;;;;63.50;46.78;;;10.20;99.90;;;;;;2091202;28;20028;-73
2023/02/12 00:21:45;;;;;;;52.30;38.88;;;10.10;99.90;;;;;;2090483;28;20035;-73
2023/02/12 00:22:45;;;;;;;59.08;44.80;;;10.20;99.90;;;;;;2090143;28;20046;-73
2023/02/12 00:23:46;;;;;;;61.13;46.08;;;10.20;99.90;;;;;;2093624;28;20027;-72
2023/02/12 00:24:46;;;;;;;49.58;37.88;;;10.10;99.90;;;;;;2091305;28;20067;-72
2023/02/12 00:25:47;;;;;;;59.90;45.17;;;10.10;99.90;;;;;;2090447;28;20022;-72
2023/02/12 00:26:49;;;;;;;58.22;44.97;;;10.20;99.90;;;;;;2088981;28;20610;-73
2023/02/12 00:27:50;;;;;;;57.70;44.08;;;10.10;99.90;;;;;;2089595;28;20025;-73
2023/02/12 00:28:51;;;;;;;60.35;43.03;;;10.10;99.90;;;;;;2090707;28;20495;-73
2023/02/12 00:29:51;;;;;;;62.00;45.83;;;10.10;99.90;;;;;;2090563;28;20649;-72
2023/02/12 00:30:52;;;;;;;58.88;44.10;;;10.10;99.90;;;;;;2090405;28;20074;-72
2023/02/12 00:31:52;;;;;;;63.58;44.58;;;10.10;99.90;;;;;;2090423;28;20103;-72
2023/02/12 00:32:53;;;;;;;54.60;40.63;;;10.10;99.90;;;;;;2093751;28;20150;-72
2023/02/12 00:33:54;;;;;;;64.05;45.05;;;10.10;99.90;;;;;;2092244;28;20024;-72
2023/02/12 00:34:55;;;;;;;61.15;45.08;;;10.10;99.90;;;;;;2090907;28;20100;-72
2023/02/12 00:35:56;;;;;;;57.92;42.83;;;10.10;99.90;;;;;;2090362;28;20029;-72
2023/02/12 00:36:56;;;;;;;52.88;40.53;;;10.10;99.90;;;;;;2089732;28;20021;-73
2023/02/12 00:37:57;;;;;;;57.67;42.47;;;10.10;99.90;;;;;;2089538;28;20093;-72
2023/02/12 00:38:59;;;;;;;53.28;41.78;;;10.10;99.90;;;;;;2088600;28;20036;-73
2023/02/12 00:39:59;;;;;;;58.80;43.35;;;10.10;99.90;;;;;;2090872;28;20070;-72
2023/02/12 00:41:00;;;;;;;49.67;37.13;;;10.10;99.90;;;;;;2090887;28;20025;-72
2023/02/12 00:42:00;;;;;;;56.60;43.30;;;10.10;99.90;;;;;;2088764;28;20052;-73
2023/02/12 00:43:01;;;;;;;57.90;43.67;;;10.10;99.90;;;;;;2091201;28;20025;-73
2023/02/12 00:44:02;;;;;;;60.33;44.08;;;10.10;99.90;;;;;;2089819;28;20025;-73
2023/02/12 00:45:02;;;;;;;63.25;45.88;;;10.10;99.90;;;;;;2091686;28;20093;-73
2023/02/12 00:46:04;;;;;;;60.20;43.88;;;10.10;99.90;;;;;;2092399;28;20650;-73
2023/02/12 00:47:04;;;;;;;60.45;46.08;;;10.10;99.90;;;;;;2091758;28;20070;-72
2023/02/12 00:48:05;;;;;;;66.35;46.55;;;10.10;99.90;;;;;;2094312;28;20032;-72
2023/02/12 00:49:06;;;;;;;60.15;43.72;;;10.10;99.90;;;;;;2093913;28;20095;-72
2023/02/12 00:50:06;;;;;;;58.22;44.00;;;10.10;99.90;;;;;;2091983;28;20127;-72
2023/02/12 00:51:08;;;;;;;61.60;45.22;;;10.10;99.90;;;;;;2092553;28;20123;-72
2023/02/12 00:52:08;;;;;;;61.15;45.50;;;10.10;99.90;;;;;;2091994;28;20032;-72
2023/02/12 00:53:09;;;;;;;58.88;45.30;;;10.10;99.90;;;;;;2093995;28;20021;-73
2023/02/12 00:54:09;;;;;;;53.42;40.13;;;10.10;99.90;;;;;;2090291;28;20028;-72
2023/02/12 00:55:10;;;;;;;58.72;43.65;;;10.10;99.90;;;;;;2090523;28;20105;-73
2023/02/12 00:56:10;;;;;;;57.78;43.25;;;10.00;99.90;;;;;;2092669;28;20082;-72
2023/02/12 00:57:11;;;;;;;59.65;43.20;;;10.10;99.90;;;;;;2090663;28;20392;-72
2023/02/12 00:58:11;;;;;;;58.95;43.08;;;10.00;99.90;;;;;;2094219;28;20051;-72
2023/02/12 00:59:12;;;;;;;56.95;41.17;;;10.00;99.90;;;;;;2086268;28;20021;-72
2023/02/12 01:00:14;;;;;;;53.92;39.70;;;10.00;99.90;;;;;;2091442;28;20013;-73
2023/02/12 01:01:14;;;;;;;58.70;40.97;;;10.00;99.90;;;;;;2092618;28;20024;-72
2023/02/12 01:02:15;;;;;;;60.30;43.38;;;10.00;99.90;;;;;;2094127;28;20029;-72
2023/02/12 01:03:16;;;;;;;60.60;44.40;;;10.00;99.90;;;;;;2094716;28;20511;-72
2023/02/12 01:04:17;;;;;;;53.50;40.85;;;10.00;99.90;;;;;;2092123;28;20040;-72
2023/02/12 01:05:18;;;;;;;58.17;42.97;;;10.00;99.90;;;;;;2092548;28;20105;-72
2023/02/12 01:06:19;;;;;;;46.13;35.42;;;10.00;99.90;;;;;;2094055;28;20630;-73
2023/02/12 01:07:19;;;;;;;56.03;42.67;;;10.00;99.90;;;;;;2089774;28;20368;-73
2023/02/12 01:08:20;;;;;;;62.45;42.53;;;10.00;99.90;;;;;;2090941;28;20350;-73
2023/02/12 01:09:20;;;;;;;56.83;42.38;;;10.00;99.90;;;;;;2090691;28;20021;-72
2023/02/12 01:10:21;;;;;;;61.80;43.45;;;10.00;99.90;;;;;;2091487;28;20036;-72
2023/02/12 01:11:22;;;;;;;59.05;44.35;;;10.00;99.90;;;;;;2091943;28;20024;-72
2023/02/12 01:12:22;;;;;;;51.65;41.13;;;10.00;99.90;;;;;;2091062;28;20025;-73
2023/02/12 01:13:24;;;;;;;58.92;42.40;;;10.00;99.90;;;;;;2090805;28;20033;-73
2023/02/12 01:14:25;;;;;;;58.33;41.58;;;10.00;99.90;;;;;;2094410;28;20029;-72
2023/02/12 01:15:25;;;;;;;56.10;42.30;;;10.00;99.90;;;;;;2093093;28;20031;-72
2023/02/12 01:16:26;;;;;;;58.50;42.47;;;10.00;99.90;;;;;;2093922;28;20052;-72
2023/02/12 01:17:27;;;;;;;57.92;42.80;;;10.00;99.90;;;;;;2092204;28;20466;-73
2023/02/12 01:18:27;;;;;;;59.88;42.90;;;10.00;99.90;;;;;;2091807;28;20051;-72
2023/02/12 01:19:28;;;;;;;63.63;45.42;;;9.90;99.90;;;;;;2093772;28;20024;-72
2023/02/12 01:20:28;;;;;;;55.95;41.42;;;9.90;99.90;;;;;;2090475;28;20024;-73
2023/02/12 01:21:31;;;;;;;54.88;42.63;;;9.90;99.90;;;;;;2092333;28;20066;-73
2023/02/12 01:22:36;;;;;;;62.20;43.38;;;9.90;99.90;;;;;;2091668;28;20021;-72
2023/02/12 01:23:36;;;;;;;57.17;44.15;;;9.90;99.90;;;;;;2090779;28;20021;-72
2023/02/12 01:24:37;;;;;;;54.65;40.78;;;9.90;99.90;;;;;;2091576;28;20032;-72
2023/02/12 01:25:38;;;;;;;54.17;41.67;;;9.90;99.90;;;;;;2092766;28;20064;-73
2023/02/12 01:26:38;;;;;;;55.85;41.50;;;9.90;99.90;;;;;;2092273;28;20547;-72
2023/02/12 01:27:39;;;;;;;57.33;41.97;;;9.90;99.90;;;;;;2093503;28;20033;-73
2023/02/12 01:28:41;;;;;;;57.35;42.95;;;9.90;99.90;;;;;;2090752;28;20400;-72
2023/02/12 01:29:43;;;;;;;55.42;41.90;;;9.90;99.90;;;;;;2089734;28;20039;-73
2023/02/12 01:30:44;;;;;;;51.35;40.30;;;9.90;99.90;;;;;;2092530;28;20029;-72
2023/02/12 01:31:44;;;;;;;55.70;42.20;;;9.90;99.90;;;;;;2090648;28;20064;-73
2023/02/12 01:32:45;;;;;;;53.53;40.67;;;9.90;99.90;;;;;;2091416;28;20024;-72
2023/02/12 01:33:50;;;;;;;52.40;42.08;;;9.80;99.90;;;;;;2090766;28;20020;-72
2023/02/12 01:34:50;;;;;;;59.92;42.97;;;9.90;99.90;;;;;;2092326;28;20025;-73
2023/02/12 01:35:51;;;;;;;53.60;40.70;;;9.80;99.90;;;;;;2093117;28;20025;-72
2023/02/12 01:36:51;;;;;;;55.08;40.47;;;9.90;99.90;;;;;;2095630;28;20047;-72
2023/02/12 01:37:52;;;;;;;56.90;41.38;;;9.90;99.90;;;;;;2092036;28;20020;-72
2023/02/12 01:38:53;;;;;;;55.20;41.45;;;9.90;99.90;;;;;;2091893;28;20044;-72
2023/02/12 01:39:54;;;;;;;55.72;41.72;;;9.90;99.90;;;;;;2093409;28;20037;-73
2023/02/12 01:41:05;;;;;;;58.20;41.83;;;9.90;99.90;;;;;;2094881;28;20112;-72
2023/02/12 01:42:06;;;;;;;58.33;42.15;;;9.90;99.90;;;;;;2091230;28;20124;-73
2023/02/12 01:43:11;;;;;;;54.20;41.10;;;9.90;99.90;;;;;;2091458;28;20040;-72
2023/02/12 01:44:14;;;;;;;56.65;42.72;;;9.90;99.90;;;;;;2092547;28;20085;-72
2023/02/12 01:45:15;;;;;;;58.58;44.08;;;9.80;99.90;;;;;;2091869;28;20024;-73
2023/02/12 01:46:15;;;;;;;55.15;41.10;;;9.80;99.90;;;;;;2091950;28;20024;-72
2023/02/12 01:47:17;;;;;;;54.97;41.03;;;9.80;99.90;;;;;;2093323;28;20045;-72
2023/02/12 01:48:20;;;;;;;53.85;40.58;;;9.80;99.90;;;;;;2091805;28;20385;-72
2023/02/12 01:49:26;;;;;;;54.30;41.20;;;9.80;99.90;;;;;;2090754;28;20295;-72
2023/02/12 01:50:27;;;;;;;55.25;40.90;;;9.80;99.90;;;;;;2089191;28;20238;-73
2023/02/12 01:51:28;;;;;;;55.53;41.00;;;9.80;99.90;;;;;;2092449;28;20024;-72
2023/02/12 01:52:32;;;;;;;58.25;42.38;;;9.90;99.90;;;;;;2091723;28;20512;-72
2023/02/12 01:53:41;;;;;;;57.05;41.88;;;9.80;99.90;;;;;;2093306;28;20021;-72
2023/02/12 01:54:42;;;;;;;57.42;44.00;;;9.80;99.90;;;;;;2091236;28;20028;-72
2023/02/12 01:55:42;;;;;;;58.20;43.40;;;9.80;99.90;;;;;;2092267;28;20107;-72
2023/02/12 01:56:43;;;;;;;53.70;41.10;;;9.80;99.90;;;;;;2091445;28;20040;-72
2023/02/12 01:57:46;;;;;;;56.70;41.50;;;9.80;99.90;;;;;;2092056;28;20120;-73
2023/02/12 01:58:50;;;;;;;61.10;45.63;;;9.80;99.90;;;;;;2091876;28;20100;-72
2023/02/12 01:59:53;;;;;;;60.60;42.53;;;9.80;99.90;;;;;;2091765;28;20037;-72
2023/02/12 02:00:54;;;;;;;59.92;44.42;;;9.80;99.90;;;;;;2092200;28;20111;-72
2023/02/12 02:01:55;;;;;;;56.53;41.92;;;9.80;99.90;;;;;;2092475;28;20028;-73
2023/02/12 02:02:58;;;;;;;56.78;42.70;;;9.80;99.90;;;;;;2091165;28;20017;-73
2023/02/12 02:04:07;;;;;;;56.78;41.83;;;9.80;99.90;;;;;;2091285;28;20025;-72
2023/02/12 02:05:07;;;;;;;59.85;42.30;;;9.80;99.90;;;;;;2093459;28;20099;-72
2023/02/12 02:06:12;;;;;;;53.97;40.92;;;9.80;99.90;;;;;;2090964;28;20027;-72
2023/02/12 02:07:13;;;;;;;54.75;41.92;;;9.80;99.90;;;;;;2092188;28;20768;-72
2023/02/12 02:08:14;;;;;;;55.58;40.65;;;9.80;99.90;;;;;;2095910;28;20103;-72
2023/02/12 02:09:18;;;;;;;58.28;43.13;;;9.80;99.90;;;;;;2093385;28;20032;-73
2023/02/12 02:10:18;;;;;;;54.97;42.17;;;9.80;99.90;;;;;;2091347;28;20032;-73
2023/02/12 02:15:17;;;;;;;59.08;42.92;;;9.70;99.90;;;;;;2091476;28;20650;-72
2023/02/12 02:16:23;;;;;;;56.83;43.97;;;9.70;99.90;;;;;;2092143;28;20071;-72
2023/02/12 02:17:50;;;;;;;54.78;43.25;;;9.70;99.90;;;;;;2093533;28;20070;-73
2023/02/12 02:19:07;;;;;;;61.85;44.38;;;9.70;99.90;;;;;;2092038;28;20046;-73
2023/02/12 02:20:28;;;;;;;55.70;42.33;;;9.70;99.90;;;;;;2093021;28;20025;-72
2023/02/12 02:21:48;;;;;;;62.67;44.10;;;9.70;99.90;;;;;;2091570;28;20116;-73
2023/02/12 02:23:10;;;;;;;55.00;42.42;;;9.70;99.90;;;;;;2091656;28;20040;-72
2023/02/12 02:24:29;;;;;;;61.65;44.70;;;9.70;99.90;;;;;;2093149;28;20111;-72
2023/02/12 02:25:47;;;;;;;63.95;45.13;;;9.70;99.90;;;;;;2091771;28;20021;-72
2023/02/12 02:27:09;;;;;;;59.35;43.92;;;9.70;99.90;;;;;;2090136;28;20078;-73
2023/02/12 02:28:28;;;;;;;65.03;44.72;;;9.70;99.90;;;;;;2089973;28;20505;-72
2023/02/12 02:30:08;;;;;;;59.90;43.65;;;9.70;99.90;;;;;;2091297;28;20082;-72
2023/02/12 02:31:39;;;;;;;63.50;44.78;;;9.70;99.90;;;;;;2093922;28;20028;-72
2023/02/12 02:32:50;;;;;;;55.33;43.17;;;9.60;99.90;;;;;;2090648;28;20028;-73
2023/02/12 02:33:57;;;;;;;63.35;45.85;;;9.60;99.90;;;;;;2090464;28;20029;-72
2023/02/12 02:35:21;;;;;;;64.63;44.50;;;9.60;99.90;;;;;;2091681;28;20102;-72
2023/02/12 02:36:42;;;;;;;61.88;45.25;;;9.60;99.90;;;;;;2091029;28;20397;-72
2023/02/12 02:38:20;;;;;;;60.53;44.35;;;9.60;99.90;;;;;;2092582;28;20040;-73
2023/02/12 02:39:38;;;;;;;64.90;45.65;;;9.60;99.90;;;;;;2092655;28;20040;-72
2023/02/12 02:41:07;;;;;;;63.58;46.30;;;9.60;99.90;;;;;;2091596;28;20024;-72
2023/02/12 02:42:15;;;;;;;62.92;45.05;;;9.60;99.90;;;;;;2075447;28;20034;-72
2023/02/12 02:43:20;;;;;;;60.58;45.25;;;9.60;99.90;;;;;;2092405;28;20028;-72
2023/02/12 02:44:34;;;;;;;58.78;44.47;;;9.60;99.90;;;;;;2091706;28;20669;-72
2023/02/12 02:45:42;;;;;;;60.97;45.70;;;9.60;99.90;;;;;;2090127;28;20063;-73
2023/02/12 02:46:46;;;;;;;63.33;46.35;;;9.60;99.90;;;;;;2090669;28;20028;-72
2023/02/12 02:47:59;;;;;;;64.50;46.05;;;9.60;99.90;;;;;;2092636;28;20851;-72
2023/02/12 02:49:03;;;;;;;63.15;46.50;;;9.60;99.90;;;;;;2091355;28;20584;-72
2023/02/12 02:50:12;;;;;;;59.83;44.25;;;9.60;99.90;;;;;;2089454;28;20039;-72
2023/02/12 02:51:27;;;;;;;63.55;45.47;;;9.60;99.90;;;;;;2091506;28;20033;-72
2023/02/12 02:52:36;;;;;;;63.70;45.92;;;9.60;99.90;;;;;;2091769;28;20033;-72
2023/02/12 02:53:52;;;;;;;62.55;45.10;;;9.60;99.90;;;;;;2092211;28;20032;-72
2023/02/12 02:54:59;;;;;;;62.42;44.53;;;9.60;99.90;;;;;;2092224;28;20036;-72
2023/02/12 02:56:03;;;;;;;59.80;45.15;;;9.60;99.90;;;;;;2094231;28;20028;-72
2023/02/12 02:57:13;;;;;;;67.43;47.40;;;9.60;99.90;;;;;;2093967;28;20063;-72
2023/02/12 02:58:19;;;;;;;64.53;45.60;;;9.70;99.90;;;;;;2089792;28;20031;-72
2023/02/12 02:59:32;;;;;;;61.20;45.83;;;9.60;99.90;;;;;;2090420;28;20163;-72
2023/02/12 03:01:02;;;;;;;61.75;45.08;;;9.60;99.90;;;;;;2090900;28;20024;-72
2023/02/12 03:02:27;;;;;;;67.65;44.92;;;9.60;99.90;;;;;;2088689;28;20116;-72
2023/02/12 03:03:32;;;;;;;61.63;44.67;;;9.60;99.90;;;;;;2092391;28;20665;-72
2023/02/12 03:04:38;;;;;;;65.72;46.33;;;9.60;99.90;;;;;;2094111;28;20435;-72
2023/02/12 03:05:44;;;;;;;64.05;45.83;;;9.60;99.90;;;;;;2094880;28;20979;-72
2023/02/12 03:06:49;;;;;;;64.78;46.08;;;9.60;99.90;;;;;;2084855;28;20036;-72
2023/02/12 03:07:57;;;;;;;65.53;46.17;;;9.60;99.90;;;;;;2088643;28;20547;-72
2023/02/12 03:09:04;;;;;;;66.05;46.17;;;9.60;99.90;;;;;;2089527;28;20028;-72
2023/02/12 03:10:24;;;;;;;60.05;45.15;;;9.70;99.90;;;;;;2091197;28;20526;-72
2023/02/12 03:11:28;;;;;;;59.28;44.60;;;9.60;99.90;;;;;;2091899;28;20048;-72
2023/02/12 03:12:34;;;;;;;66.82;45.25;;;9.60;99.90;;;;;;2090125;28;20035;-72
2023/02/12 03:13:49;;;;;;;60.45;43.70;;;9.60;99.90;;;;;;2093657;28;20024;-72
2023/02/12 03:14:56;;;;;;;63.22;44.58;;;9.60;99.90;;;;;;2090693;28;20029;-72
2023/02/12 03:16:07;;;;;;;65.28;47.15;;;9.60;99.90;;;;;;2091680;28;20398;-72
2023/02/12 03:17:15;;;;;;;62.08;44.85;;;9.60;99.90;;;;;;2091272;28;20031;-72
2023/02/12 03:18:24;;;;;;;58.28;43.80;;;9.60;99.90;;;;;;2090511;28;20015;-72
2023/02/12 03:19:29;;;;;;;56.88;43.40;;;9.60;99.90;;;;;;2092052;28;20025;-72
2023/02/12 03:20:36;;;;;;;64.45;43.28;;;9.60;99.90;;;;;;2092998;28;20031;-72
2023/02/12 03:22:01;;;;;;;59.05;45.03;;;9.60;99.90;;;;;;2090992;28;20013;-72
2023/02/12 03:23:08;;;;;;;60.67;43.47;;;9.60;99.90;;;;;;2093143;28;20511;-72
2023/02/12 03:24:31;;;;;;;60.55;43.55;;;9.60;99.90;;;;;;2091680;28;20037;-72
2023/02/12 03:25:39;;;;;;;61.10;45.20;;;9.60;99.90;;;;;;2090668;28;20028;-72
2023/02/12 03:26:53;;;;;;;60.20;45.42;;;9.60;99.90;;;;;;2092431;28;20032;-72
2023/02/12 03:28:08;;;;;;;64.70;46.00;;;9.60;99.90;;;;;;2090494;28;20025;-72
2023/02/12 03:29:09;;;;;;;62.00;44.85;;;9.50;99.90;;;;;;2094553;28;20020;-72
2023/02/12 03:30:10;;;;;;;59.85;44.05;;;9.50;99.90;;;;;;2093784;28;20111;-72
2023/02/12 03:31:45;;;;;;;61.85;45.20;;;9.60;99.90;;;;;;2092324;28;20476;-72
2023/02/12 03:33:27;;;;;;;62.92;44.13;;;9.60;99.90;;;;;;2093792;28;20152;-72
2023/02/12 03:34:49;;;;;;;64.13;45.53;;;9.50;99.90;;;;;;2092360;28;20501;-72
2023/02/12 03:36:02;;;;;;;61.95;45.38;;;9.50;99.90;;;;;;2091609;28;20047;-73
2023/02/12 03:37:06;;;;;;;67.10;44.75;;;9.50;99.90;;;;;;2091431;28;20024;-72
2023/02/12 03:38:19;;;;;;;62.83;45.10;;;9.50;99.90;;;;;;2092227;28;20357;-73
2023/02/12 03:39:20;;;;;;;59.00;44.50;;;9.50;99.90;;;;;;2092014;28;20077;-72
2023/02/12 03:40:41;;;;;;;64.50;45.72;;;9.50;99.90;;;;;;2090150;28;20021;-72
2023/02/12 03:41:54;;;;;;;63.33;43.60;;;9.50;99.90;;;;;;2092247;28;20031;-73
2023/02/12 03:43:08;;;;;;;61.28;44.65;;;9.50;99.90;;;;;;2093310;28;20028;-72
2023/02/12 03:44:15;;;;;;;59.25;42.72;;;9.50;99.90;;;;;;2092958;28;20086;-72
2023/02/12 03:45:39;;;;;;;59.65;43.92;;;9.50;99.90;;;;;;2089743;28;20113;-72
2023/02/12 03:46:49;;;;;;;56.67;43.25;;;9.50;99.90;;;;;;2092200;28;20032;-72
2023/02/12 03:47:52;;;;;;;57.97;42.50;;;9.50;99.90;;;;;;2092268;28;20037;-72
2023/02/12 03:49:15;;;;;;;62.25;42.33;;;9.50;99.90;;;;;;2087590;28;20574;-72
2023/02/12 03:50:22;;;;;;;59.88;42.92;;;9.50;99.90;;;;;;2091270;28;20044;-72
2023/02/12 03:51:37;;;;;;;58.20;44.10;;;9.50;99.90;;;;;;2092637;28;20037;-72
2023/02/12 03:52:37;;;;;;;60.05;43.00;;;9.50;99.90;;;;;;2089862;28;20070;-72
2023/02/12 03:53:38;;;;;;;62.83;44.80;;;9.50;99.90;;;;;;2092963;28;20535;-72
2023/02/12 03:54:38;;;;;;;56.50;42.75;;;9.60;99.90;;;;;;2091282;28;20044;-73
2023/02/12 03:55:43;;;;;;;56.28;42.08;;;9.60;99.90;;;;;;2092298;28;20036;-72
2023/02/12 03:57:19;;;;;;;57.50;43.50;;;9.60;99.90;;;;;;2092302;28;20478;-72
2023/02/12 03:58:25;;;;;;;59.05;44.63;;;9.50;99.90;;;;;;2086692;28;20665;-73
2023/02/12 03:59:27;;;;;;;64.00;44.55;;;9.50;99.90;;;;;;2091717;28;20473;-72
2023/02/12 04:00:27;;;;;;;58.35;42.72;;;9.50;99.90;;;;;;2091653;28;20088;-73
2023/02/12 04:01:28;;;;;;;58.63;42.65;;;9.50;99.90;;;;;;2090511;28;20078;-72
2023/02/12 04:02:29;;;;;;;56.97;43.13;;;9.50;99.90;;;;;;2090625;28;20450;-72
2023/02/12 04:03:30;;;;;;;54.67;42.78;;;9.60;99.90;;;;;;2090545;28;20095;-72
2023/02/12 04:04:31;;;;;;;59.38;42.40;;;9.50;99.90;;;;;;2090069;28;20025;-72
2023/02/12 04:05:32;;;;;;;57.85;42.67;;;9.50;99.90;;;;;;2092306;28;20032;-72
2023/02/12 04:06:33;;;;;;;57.92;43.08;;;9.60;99.90;;;;;;2093649;28;20580;-72
2023/02/12 04:07:35;;;;;;;62.72;41.70;;;9.60;99.90;;;;;;2091418;28;20461;-72
2023/02/12 04:08:35;;;;;;;57.30;43.10;;;9.50;99.90;;;;;;2084719;28;20034;-72
2023/02/12 04:09:37;;;;;;;57.25;42.30;;;9.50;99.90;;;;;;2093390;28;20037;-72
2023/02/12 04:11:05;;;;;;;57.00;43.40;;;9.60;99.90;;;;;;2090893;28;20036;-72
2023/02/12 04:12:09;;;;;;;59.08;43.55;;;9.60;99.90;;;;;;2090985;28;20025;-72
2023/02/12 04:13:27;;;;;;;59.60;43.40;;;9.60;99.90;;;;;;2090635;28;20021;-72
2023/02/12 04:14:58;;;;;;;61.38;42.33;;;9.50;99.90;;;;;;2089622;28;20028;-72
2023/02/12 04:16:20;;;;;;;58.10;43.92;;;9.50;99.90;;;;;;2089712;28;20025;-72
2023/02/12 04:17:43;;;;;;;60.05;43.55;;;9.50;99.90;;;;;;2090484;28;20768;-72
2023/02/12 04:18:45;;;;;;;62.22;42.95;;;9.50;99.90;;;;;;2089953;28;20044;-73
2023/02/12 04:19:54;;;;;;;59.15;43.35;;;9.50;99.90;;;;;;2097667;28;20245;-72
2023/02/12 04:21:12;;;;;;;62.28;42.88;;;9.50;99.90;;;;;;2099749;28;20020;-72
2023/02/12 04:22:40;;;;;;;59.55;43.13;;;9.50;99.90;;;;;;2092789;28;20837;-72
2023/02/12 04:23:59;;;;;;;63.30;43.25;;;9.50;99.90;;;;;;2094220;28;20099;-72
2023/02/12 04:25:16;;;;;;;57.10;43.63;;;9.50;99.90;;;;;;2091240;28;20024;-72
2023/02/12 04:26:33;;;;;;;59.63;42.67;;;9.50;99.90;;;;;;2091293;28;20115;-72
2023/02/12 04:27:36;;;;;;;61.45;44.15;;;9.50;99.90;;;;;;2090909;28;20027;-72
2023/02/12 04:28:49;;;;;;;58.95;42.72;;;9.40;99.90;;;;;;2089696;28;20021;-72
2023/02/12 04:30:02;;;;;;;62.45;43.85;;;9.50;99.90;;;;;;2090684;28;20025;-72
2023/02/12 04:31:16;;;;;;;57.65;43.45;;;9.40;99.90;;;;;;2091077;28;21007;-72
2023/02/12 04:32:25;;;;;;;53.75;40.95;;;9.50;99.90;;;;;;2091264;28;20029;-72
2023/02/12 04:33:32;;;;;;;56.97;42.75;;;9.50;99.90;;;;;;2089780;28;20404;-73
2023/02/12 04:35:00;;;;;;;62.83;44.13;;;9.50;99.90;;;;;;2090640;28;20143;-73
2023/02/12 04:36:15;;;;;;;54.50;40.40;;;9.50;99.90;;;;;;2090971;28;20016;-72
2023/02/12 04:37:36;;;;;;;58.55;42.78;;;9.50;99.90;;;;;;2089561;28;20135;-73
2023/02/12 04:38:42;;;;;;;57.05;42.70;;;9.50;99.90;;;;;;2091362;28;20017;-72
2023/02/12 04:39:44;;;;;;;61.30;44.08;;;9.50;99.90;;;;;;2091609;28;20079;-72
2023/02/12 04:40:46;;;;;;;59.28;42.70;;;9.50;99.90;;;;;;2091161;28;20104;-72
2023/02/12 04:41:47;;;;;;;59.30;41.60;;;9.50;99.90;;;;;;2090074;28;20021;-72
2023/02/12 04:42:50;;;;;;;55.83;42.38;;;9.50;99.90;;;;;;2090813;28;20028;-72
2023/02/12 04:43:51;;;;;;;57.38;41.60;;;9.50;99.90;;;;;;2089794;28;20021;-72
2023/02/12 04:44:52;;;;;;;60.85;42.65;;;9.50;99.90;;;;;;2089589;28;20025;-72
2023/02/12 04:45:52;;;;;;;60.33;43.40;;;9.50;99.90;;;;;;2092571;28;20039;-72
2023/02/12 04:46:53;;;;;;;58.85;44.15;;;9.50;99.90;;;;;;2085629;28;20029;-72
2023/02/12 04:47:53;;;;;;;63.55;43.13;;;9.50;99.90;;;;;;2088990;28;20079;-72
2023/02/12 04:48:56;;;;;;;62.75;43.35;;;9.50;99.90;;;;;;2092136;28;20033;-72
2023/02/12 04:49:57;;;;;;;63.63;44.45;;;9.50;99.90;;;;;;2091954;28;20524;-72
2023/02/12 04:50:57;;;;;;;61.17;42.45;;;9.50;99.90;;;;;;2092340;28;20750;-73
2023/02/12 04:51:58;;;;;;;61.20;43.47;;;9.50;99.90;;;;;;2091626;28;20071;-72
2023/02/12 04:52:58;;;;;;;56.55;41.63;;;9.50;99.90;;;;;;2089378;28;20107;-72
2023/02/12 04:53:59;;;;;;;60.33;42.72;;;9.50;99.90;;;;;;2091306;28;20025;-72
2023/02/12 04:55:00;;;;;;;56.88;42.58;;;9.50;99.90;;;;;;2088661;28;20043;-72
2023/02/12 04:56:00;;;;;;;60.38;41.80;;;9.50;99.90;;;;;;2088883;28;20496;-72
2023/02/12 04:57:01;;;;;;;58.85;44.22;;;9.50;99.90;;;;;;2090644;28;20021;-72
2023/02/12 04:58:02;;;;;;;60.58;42.40;;;9.50;99.90;;;;;;2088479;28;20036;-72
2023/02/12 04:59:02;;;;;;;62.20;43.97;;;9.50;99.90;;;;;;2092681;28;20031;-72
2023/02/12 05:00:08;;;;;;;58.75;41.80;;;9.50;99.90;;;;;;2088380;28;20385;-72
2023/02/12 05:01:09;;;;;;;55.58;42.10;;;9.50;99.90;;;;;;2090736;28;20033;-72
2023/02/12 05:02:10;;;;;;;62.35;45.05;;;9.50;99.90;;;;;;2090208;28;20420;-72
2023/02/12 05:03:10;;;;;;;60.05;44.95;;;9.50;99.90;;;;;;2090208;28;20025;-72
2023/02/12 05:04:13;;;;;;;63.13;44.17;;;9.50;99.90;;;;;;2090706;28;20100;-72
2023/02/12 05:05:14;;;;;;;61.38;44.63;;;9.50;99.90;;;;;;2091511;28;20025;-72
2023/02/12 05:06:14;;;;;;;60.05;44.03;;;9.50;99.90;;;;;;2090199;28;20103;-72
2023/02/12 05:07:15;;;;;;;60.55;44.05;;;9.50;99.90;;;;;;2092342;28;20133;-72
2023/02/12 05:08:15;;;;;;;64.28;44.42;;;9.50;99.90;;;;;;2092613;28;20024;-72
2023/02/12 05:09:18;;;;;;;60.50;44.08;;;9.50;99.90;;;;;;2088910;28;20047;-72
2023/02/12 05:10:19;;;;;;;59.08;43.55;;;9.50;99.90;;;;;;2092275;28;20070;-72
2023/02/12 05:11:20;;;;;;;60.95;43.15;;;9.50;99.90;;;;;;2090369;28;20045;-72
2023/02/12 05:12:20;;;;;;;59.30;44.85;;;9.50;99.90;;;;;;2090011;28;20041;-73
2023/02/12 05:13:21;;;;;;;60.38;44.40;;;9.50;99.90;;;;;;2090882;28;20027;-73
2023/02/12 05:14:24;;;;;;;67.13;45.92;;;9.50;99.90;;;;;;2089742;28;21041;-72
2023/02/12 05:15:25;;;;;;;61.25;44.90;;;9.50;99.90;;;;;;2091988;28;20024;-73
2023/02/12 05:16:25;;;;;;;60.63;43.17;;;9.50;99.90;;;;;;2090276;28;20060;-72
2023/02/12 05:17:26;;;;;;;62.38;44.65;;;9.50;99.90;;;;;;2090031;28;20546;-73
2023/02/12 05:18:26;;;;;;;63.38;47.05;;;9.50;99.90;;;;;;2090970;28;20021;-72
2023/02/12 05:19:27;;;;;;;63.28;44.85;;;9.50;99.90;;;;;;2090709;28;20032;-73
2023/02/12 05:20:27;;;;;;;65.70;46.53;;;9.50;99.90;;;;;;2090949;28;20056;-72
2023/02/12 05:21:28;;;;;;;67.25;46.03;;;9.50;99.90;;;;;;2091081;28;20021;-72
2023/02/12 05:22:28;;;;;;;65.38;46.75;;;9.50;99.90;;;;;;2091469;28;20033;-72
2023/02/12 05:23:31;;;;;;;63.25;44.92;;;9.50;99.90;;;;;;2088843;28;20025;-72
2023/02/12 05:24:31;;;;;;;64.40;46.03;;;9.50;99.90;;;;;;2088947;28;20020;-73
2023/02/12 05:25:32;;;;;;;62.90;46.28;;;9.50;99.90;;;;;;2091945;28;20024;-72
2023/02/12 05:26:33;;;;;;;66.60;46.55;;;9.50;99.90;;;;;;2090472;28;20413;-72
2023/02/12 05:27:33;;;;;;;64.93;46.08;;;9.50;99.90;;;;;;2091924;28;20020;-72
2023/02/12 05:28:34;;;;;;;65.05;44.58;;;9.50;99.90;;;;;;2090521;28;20040;-72
2023/02/12 05:29:35;;;;;;;63.55;47.10;;;9.50;99.90;;;;;;2092634;28;20032;-72
2023/02/12 05:30:36;;;;;;;63.25;46.78;;;9.50;99.90;;;;;;2091951;28;20048;-72
2023/02/12 05:31:36;;;;;;;63.92;45.78;;;9.60;99.90;;;;;;2090912;28;20017;-72
2023/02/12 05:32:37;;;;;;;67.68;45.90;;;9.50;99.90;;;;;;2091436;28;20028;-72
2023/02/12 05:33:37;;;;;;;67.82;46.92;;;9.50;99.90;;;;;;2091000;28;20026;-72
2023/02/12 05:34:38;;;;;;;68.60;49.03;;;9.50;99.90;;;;;;2090998;28;20028;-72
2023/02/12 05:35:38;;;;;;;66.70;47.35;;;9.50;99.90;;;;;;2090953;28;20074;-72
2023/02/12 05:36:40;;;;;;;64.60;46.88;;;9.50;99.90;;;;;;2091806;28;20021;-72
2023/02/12 05:37:40;;;;;;;67.15;48.63;;;9.50;99.90;;;;;;2090803;28;21200;-73
2023/02/12 05:38:41;;;;;;;66.32;47.33;;;9.50;99.90;;;;;;2092578;28;20055;-72
2023/02/12 05:39:41;;;;;;;69.68;47.53;;;9.50;99.90;;;;;;2091307;28;20025;-72